TNCA/AUA METAR and TAF weather

Enter ICAO airport designator
Station Type Date Time Source
TNCA METAR 2019/12/10 19:00 UTC NOAA

TNCA 101900Z 09020KT 9999 FEW022 30/23 Q1011 NOSIG


Station Type Date Time Source
TNCA Decoded METAR 2019/12/10 19:00 UTC NOAA

Queen Beatrix Airport, Aruba (TNCA) 12-30N 070-01W 33M
Dec 10, 2019 - 02:00 PM EST / 2019.12.10 1900 UTC
Wind: from the E (090 degrees) at 23 MPH (20 KT):0
Visibility: greater than 7 mile(s):0
Sky conditions: mostly clear
Temperature: 86 F (30 C)
Heat index: 93.4 F (34.1 C):1
Dew Point: 73 F (23 C)
Relative Humidity: 66%
Pressure (altimeter): 29.85 in. Hg (1011 hPa)
ob: TNCA 101900Z 09020KT 9999 FEW022 30/23 Q1011 NOSIG
cycle: 19

Station Type Date Time Source
TNCA TAF 2019/12/10 18:03 UTC NOAA

TAF TNCA 101800Z 1018/1124 10018KT 9999 SCT022 PROB30
TEMPO 1018/1118 09020G32KT 5000 SHRA BKN015

Example: see airport list